Balch Springs, Texas
Current Conditions -  °F | °C
As of 2:55 AM on Thursday 23 Oct 2014 (Local Time) from KHQZ Reporting Station
Scattered Clouds Scattered Clouds  
Wind Chill: 64°   Ceiling: Unl
Heat Index: 64°   Visibility: 10mi
Dew Point: 52°   Wind: 3mph
Humidity: 66%   Direction: 130°SE
Pressure: 30.12"   Gusts: NA
Location:  32.73°N, 96.62°W
Report Text: KHQZ 230755Z AUTO 13003KT 10SM SCT120 18/11 A3012 RMK AO1 T01750111
Loading
Personal Weather Stations






























Interactive Weather Map New forecast layout! Learn more

10-Day Weather Forecast

Advertisements
Track Severe Weather on mobile